Landrum, Texas
Current Conditions -  °F | °C
As of 8:52 AM on Thursday 23 Oct 2014 (Local Time) from KHRL Reporting Station
Clear Clear  
Wind Chill: 70°   Ceiling: Unl
Heat Index: 70°   Visibility: 8mi
Dew Point: 67°   Wind: 5mph
Humidity: 90%   Direction: 320°NW
Pressure: 30.06"   Gusts: NA
Location:  26.1784°N, 97.6678°W
Report Text: KHRL 231352Z 32004KT 8SM CLR 21/19 A3006 RMK AO2 SLP178 T02110194
Loading
Personal Weather Stations






























Interactive Weather Map
Tropical Storm Tracking
New forecast layout! Learn more

10-Day Weather Forecast

Advertisements
Track Severe Weather on mobile